This is the latest recevied weather packets stored in our database for station/object AB4KY. If no packets are shown the sender has not sent any weather packets the latest 10 day(s).
| Time | Temp. | Humidity | Pressure | Rain* | Wind** | Luminosity | Snow |
|---|---|---|---|---|---|---|---|
| 1777890036 | 11.11° C | 86% | 1007.7 hPa | 0 mm | - | 0 W/m² | - |
| 1777889733 | 11.11° C | 86% | 1007.7 hPa | 0 mm | - | 0 W/m² | - |
| 1777889431 | 11.11° C | 88% | 1007.5 hPa | 0 mm | - | 0 W/m² | - |
| 1777889128 | 11.11° C | 88% | 1008.1 hPa | 0 mm | - | 0 W/m² | - |
| 1777888826 | 11.11° C | 88% | 1008.1 hPa | 0 mm | - | 0 W/m² | - |
| 1777888522 | 11.11° C | 87% | 1008.5 hPa | 0 mm | - | 0 W/m² | - |
| 1777888218 | 11.11° C | 88% | 1008.8 hPa | 0 mm | - | 0 W/m² | - |
| 1777887915 | 11.11° C | 87% | 1008.9 hPa | 0.51 mm | - | 0 W/m² | - |
| 1777887612 | 11.11° C | 86% | 1009.2 hPa | 0 mm | - | 0 W/m² | - |
| 1777887308 | 11.11° C | 86% | 1009.5 hPa | 1.27 mm | - | 0 W/m² | - |
| 1777887004 | 10.56° C | 88% | 1009.7 hPa | 0.51 mm | - | 0 W/m² | - |
| 1777886700 | 10.56° C | 88% | 1009.1 hPa | 0 mm | - | 0 W/m² | - |
| 1777886397 | 10.56° C | 87% | 1008.9 hPa | 0 mm | - | 0 W/m² | - |
| 1777886095 | 10.56° C | 89% | 1009.2 hPa | 0 mm | - | 0 W/m² | - |
| 1777885793 | 10.56° C | 87% | 1008.9 hPa | 0 mm | - | 0 W/m² | - |
| 1777885491 | 10.56° C | 88% | 1008.8 hPa | 3.05 mm | - | 0 W/m² | - |
| 1777885189 | 11.11° C | 86% | 1008.8 hPa | 6.6 mm | - | 0 W/m² | - |
| 1777884885 | 11.67° C | 79% | 1008.9 hPa | 1.78 mm | - | 0 W/m² | - |
| 1777884582 | 12.78° C | 73% | 1009.1 hPa | 0.51 mm | - | 0 W/m² | - |
| 1777884279 | 12.22° C | 71% | 1008.8 hPa | 0 mm | - | 0 W/m² | - |
| 1777883975 | 12.78° C | 71% | 1008.7 hPa | 0 mm | - | 0 W/m² | - |
| 1777883673 | 12.78° C | 69% | 1008.7 hPa | 0 mm | - | 0 W/m² | - |
| 1777883368 | 12.22° C | 69% | 1008.7 hPa | 0 mm | - | 0 W/m² | - |
| 1777883065 | 12.22° C | 70% | 1008.8 hPa | 0 mm | - | 0 W/m² | - |
| 1777882762 | 12.22° C | 70% | 1008.9 hPa | 0 mm | - | 0 W/m² | - |
* Rain latest hour (hover to see other rain measurements)
** Current wind speed in m/s (hover to see current wind gust speed)